Airport ID:KMHV
Update Time (UTC):27/05/2018 13:14
Wind Speed (Knots):7
Wind Direction (Magnetic):300
Temperature (°C):15
Dew Point (°C):6
Humidity (%):56
Altimeter (inHg):29.94
Density Altitude (Feet):
Visibility (Miles):10+
Clouds (Hundreds of feet):CLR
Present Weather:
METAR:METAR KMHV 271300Z AUTO 30010G15KT 10SM CLR 14/06 A2994 RMK A01

The data displayed is for advisory purposes only and is not to be used for flight planning or operations.

This page is not automatically refreshed. Reload the page to see current data.